Decoded Metar for KSPA (SPARTANBURG VOR in SC, USA) (IATA:SPA) | Meteo·Mobile Aviation Weather
aviador You're here:

KSPA Decoded Metar

SPARTANBURG VOR in SC, USA
Report Time2019-09-23 09:15:00
UTC Time2019-09-23 09:26:21
Flight Rules vfr VFR
WindCalm
Visibility9999 m
Phenomena:N/A
Clouds:N/A
Expected CloudBase > 800 ft AGL from Temp-Dew spread
CeilingNone
Temp16°C (ISA +3)
Dew Point14°C (88% RH)
QNH1019 hPa
Density Alt1,358 ft
Elevation994 ft
Report Wrong Elevation
Raw Report
METAR KSPA 230915Z AUTO 00000KT 10SM CLR 16/14 A3010 RMK AO2=

Extra information for KSPA:More info

Metar Taf Metar & Taf Last 4 Metars F.Rules Stats Wind Profile Meteogram Temp Stats Airport Information Weather charts Add Link Nearby VenuesMetar ALERT Operation Metar Decoded Social comments

AIRNAV info for KSPA